• Join FlightAware (Why Join?)
  • Login
  • US Flag 
11:34AM EST


 

Airport Tracker/Info


-or-


 

Live Flight TrackerFlight Track Log ✈ N5551L ✈ 26-Jun-2014 ✈ KAPF - KOPF

Flight Track Log - Related Links

Times and Time Zones

All times are in EDT time to prevent confusion due to time zone crossing. See the N5551L flight status page for this flight to view local times or setup timezone preferences in your user account.

Time Position Orientation Groundspeed Altitude Reporting Facility
EDT Latitude Longitude Course Direction KTS MPH feet Rate Location/Type
10:01AM 26.1492 -81.7464 120° Southeast 69 79 1,000  Level Miami Center
10:02AM 26.1422 -81.7236 109° East 71 82 1,600 480 Climbing Miami Center
10:03AM 26.1347 -81.7019 111° Southeast 73 84 2,100 480 Climbing Miami Center
10:04AM 26.1311 -81.6783 100° East 73 84 2,600 420 Climbing Miami Center
10:05AM 26.1214 -81.6558 116° Southeast 77 89 3,000 120 Climbing Miami Center
10:06AM 26.1114 -81.6294 113° Southeast 82 94 2,900 -120 Descending Miami Center
10:07AM 26.1067 -81.6042 102° East 83 96 2,800  Descending Miami Center
10:08AM 26.0942 -81.5792 119° Southeast 84 97 2,900 60 Climbing Miami Center
10:09AM 26.0853 -81.5561 113° Southeast 83 96 3,000  Climbing Miami Center
10:10AM 26.0753 -81.5303 113° Southeast 84 97 3,000 -60 Level Miami Center
10:11AM 26.0644 -81.5058 116° Southeast 86 99 2,900 -60 Descending Miami Center
10:12AM 26.0531 -81.4811 117° Southeast 86 99 2,900  Level Miami Center
10:13AM 26.0472 -81.4578 106° East 81 93 3,000  Climbing Miami Center
10:14AM 26.0400 -81.4322 107° East 81 93 3,000  Level Miami Center
10:15AM 26.0300 -81.4083 115° Southeast 85 98 3,000 -60 Level Miami Center
10:17AM 26.0172 -81.3831 106° East 85 98 2,900 -60 Descending Miami Center
10:18AM 26.0125 -81.3583 102° East 85 98 2,900  Level Miami Center
10:19AM 26.0075 -81.3314 102° East 85 98 2,900  Level Miami Center
10:20AM 26.0083 -81.3075 88° East 80 92 3,000  Climbing Miami Center
10:21AM 26.0053 -81.2822 98° East 78 90 3,000  Level Miami Center
10:22AM 26.0011 -81.2569 100° East 79 91 3,000  Level Miami Center
10:24AM 25.9908 -81.2031 102° East 86 99 3,000 -60 Level Miami Center
10:25AM 25.9881 -81.1758 96° East 85 98 2,900  Descending Miami Center
10:26AM 25.9881 -81.1511 90° East 84 97 3,000  Climbing Miami Center
10:27AM 25.9967 -81.1258 69° East 81 93 2,900 -60 Descending Miami Center
10:28AM 26.0072 -81.1056 60° Northeast 80 92 2,900  Level Miami Center
10:29AM 26.0067 -81.0792 91° East 85 98 2,900 -60 Level Miami Center
10:30AM 26.0056 -81.0508 92° East 81 93 2,800 -300 Descending Miami Center
10:31AM 26.0050 -81.0244 91° East 89 102 2,400 -420 Descending Miami Center
10:32AM 26.0017 -80.9961 97° East 90 104 2,000 -300 Descending Miami Center
10:33AM 25.9994 -80.9703 95° East 88 101 1,900  Descending Miami Center
10:34AM 25.9969 -80.9453 96° East 85 98 2,000  Climbing Miami Center
10:35AM 25.9919 -80.9208 103° East 79 91 1,900 -60 Descending Miami Center
10:36AM 25.9894 -80.8969 97° East 81 93 1,900  Level Miami Center
10:37AM 25.9822 -80.8703 107° East 79 91 1,900  Level Miami Center
10:38AM 25.9817 -80.8447 91° East 81 93 1,900  Level Miami Center
10:39AM 25.9792 -80.8214 97° East 76 87 1,900  Level Miami Center
10:40AM 25.9789 -80.7958 91° East 77 89 2,000  Climbing Miami Center
10:41AM 25.9761 -80.7725 98° East 77 89 2,000  Level Miami Center
10:42AM 25.9719 -80.7483 101° East 78 90 2,000  Level Miami Center
10:43AM 25.9669 -80.7231 102° East 81 93 2,000  Level Miami Center
10:44AM 25.9622 -80.6972 101° East 80 92 2,000  Level Miami Center
10:45AM 25.9603 -80.6697 94° East 79 91 2,000 -60 Level Miami Center
10:46AM 25.9592 -80.6483 93° East 77 89 1,900  Descending Miami Center
10:47AM 25.9544 -80.6247 103° East 82 94 2,000 60 Climbing Miami Center
10:47AM 25.9542 -80.6222 97° East 79 91 2,000  Level Miami Center
10:48AM 25.9519 -80.5989 96° East 78 90 2,000  Level Miami Center
10:49AM 25.9517 -80.5975 103° East 80 92 2,000  Level Miami Center
10:50AM 25.9483 -80.5739 99° East 79 91 2,000  Level Miami Center
10:50AM 25.9425 -80.5494 105° East 78 90 2,000 -60 Level Miami Center
10:51AM 25.9358 -80.5258 107° East 82 94 1,900 -120 Descending Miami Center
10:52AM 25.9356 -80.5214 94° East 79 91 1,900 60 Level Miami Center
10:52AM 25.9311 -80.5022 104° East 80 92 2,000 60 Climbing Miami Center
10:53AM 25.9311 -80.4969 90° East 80 92 2,000 -120 Level Miami Center
10:53AM 25.9286 -80.4767 98° East 85 98 1,900 -120 Descending Miami Center
10:54AM 25.9292 -80.4717 83° East 80 92 1,900 60 Level Miami Center
10:54AM 25.9258 -80.4533 101° East 74 85 2,000 60 Climbing Miami Center
10:55AM 25.9267 -80.4483 80° East 80 92 2,000 -120 Level Miami Center
10:55AM 25.9256 -80.4256 93° East 81 93 1,900 -120 Descending Miami Center
10:56AM 25.9247 -80.4236 115° Southeast 80 92 1,900 -240 Level Miami Center
10:56AM 25.9228 -80.4019 96° East 82 94 1,700 -420 Descending Miami Center
10:57AM 25.9219 -80.3931 96° East 80 92 1,500 -540 Descending Miami Center
10:58AM 25.9183 -80.3739 102° East 87 100 1,200 -420 Descending Miami Center
10:58AM 25.9181 -80.3667 92° East 83 96 1,100 -300 Descending Miami Center
10:59AM 25.9158 -80.3483 98° East 88 101 900 -240 Descending Miami Center
10:59AM 25.9169 -80.3394 82° East 84 97 900 -300 Level Miami Center
11:00AM 25.9156 -80.3203 95° East 86 99 600 -420 Descending Miami Center
11:00AM 25.9156 -80.3133 90° East 85 98 500 1,680 Descending Miami Center
11:01AM 25.9125 -80.2906 98° East 80 92 3,000 2,400 Climbing Miami Center
11:03AM 25.9074 -80.2782 103° East  Level Estimated